createdAt,value
2023-03-12T00:00:31.077Z,3.25
2023-03-12T00:01:34.665Z,3.53
2023-03-12T00:02:37.082Z,2.97
2023-03-12T00:03:42.786Z,2.72
2023-03-12T00:04:48.110Z,3.00
2023-03-12T00:05:50.411Z,3.15
2023-03-12T00:06:52.812Z,5.13
2023-03-12T00:07:59.931Z,2.60
2023-03-12T00:09:02.513Z,4.75
2023-03-12T00:10:05.947Z,3.50
2023-03-12T00:11:10.924Z,2.67
2023-03-12T00:12:13.377Z,3.42
2023-03-12T00:13:15.815Z,2.90
2023-03-12T00:14:18.161Z,5.00
2023-03-12T00:15:20.756Z,4.25
2023-03-12T00:16:23.965Z,3.50
2023-03-12T00:17:26.283Z,3.95
2023-03-12T00:18:28.727Z,4.03
2023-03-12T00:19:31.468Z,3.13
2023-03-12T00:20:33.996Z,3.03
2023-03-12T00:21:36.313Z,4.30
2023-03-12T00:22:39.654Z,4.60
2023-03-12T00:23:42.446Z,3.25
2023-03-12T00:24:44.716Z,3.55
2023-03-12T00:25:47.112Z,5.03
2023-03-12T00:26:49.635Z,4.38
2023-03-12T00:27:51.935Z,3.28
2023-03-12T00:28:54.185Z,3.53
2023-03-12T00:29:56.662Z,5.32
2023-03-12T00:30:59.493Z,4.00
2023-03-12T00:32:01.951Z,3.78
2023-03-12T00:33:04.439Z,4.63
2023-03-12T00:34:06.974Z,5.65
2023-03-12T00:35:09.591Z,4.70
2023-03-12T00:36:12.720Z,6.18
2023-03-12T00:37:15.247Z,4.25
2023-03-12T00:38:17.872Z,4.93
2023-03-12T00:39:20.685Z,4.82
2023-03-12T00:40:23.838Z,3.92
2023-03-12T00:41:27.378Z,3.63
2023-03-12T00:42:30.038Z,4.28
2023-03-12T00:43:32.339Z,4.13
2023-03-12T00:44:34.700Z,3.97
2023-03-12T00:45:37.411Z,3.45
2023-03-12T00:46:39.972Z,6.50
2023-03-12T00:47:42.532Z,4.53
2023-03-12T00:48:48.154Z,4.97
2023-03-12T00:49:50.651Z,3.05
2023-03-12T00:50:53.008Z,4.15
2023-03-12T00:51:55.340Z,3.65
2023-03-12T00:52:57.662Z,5.22
2023-03-12T00:54:00.311Z,4.38
2023-03-12T00:55:03.195Z,4.22
2023-03-12T00:56:07.220Z,4.13
2023-03-12T00:57:09.604Z,5.50
2023-03-12T00:58:12.497Z,4.47
2023-03-12T00:59:15.915Z,5.20
2023-03-12T01:00:18.554Z,4.65
2023-03-12T01:01:21.156Z,6.43
2023-03-12T01:02:23.652Z,4.05
2023-03-12T01:03:26.111Z,3.78
2023-03-12T01:04:28.647Z,3.83
2023-03-12T01:05:34.096Z,3.22
2023-03-12T01:06:37.522Z,2.90
2023-03-12T01:07:40.539Z,4.72
2023-03-12T01:08:43.489Z,3.58
2023-03-12T01:09:45.938Z,3.03
2023-03-12T01:10:48.424Z,3.45
2023-03-12T01:11:50.892Z,4.43
2023-03-12T01:12:53.304Z,3.67
2023-03-12T01:13:57.384Z,5.45
2023-03-12T01:14:59.724Z,4.45
2023-03-12T01:16:02.995Z,3.00
2023-03-12T01:17:05.423Z,3.83
2023-03-12T01:18:08.324Z,5.35
2023-03-12T01:19:11.331Z,3.40
2023-03-12T01:20:15.408Z,7.30
2023-03-12T01:21:17.796Z,4.82
2023-03-12T01:22:20.118Z,6.60
2023-03-12T01:23:22.550Z,3.83
2023-03-12T01:24:25.333Z,3.70
2023-03-12T01:25:27.919Z,3.75
2023-03-12T01:26:33.591Z,4.10
2023-03-12T01:27:36.403Z,9.20
2023-03-12T01:28:41.392Z,6.13
2023-03-12T01:29:43.974Z,4.32
2023-03-12T01:30:46.550Z,6.05
2023-03-12T01:31:49.074Z,4.50
2023-03-12T01:32:54.789Z,6.85
2023-03-12T01:33:58.011Z,4.22
2023-03-12T01:35:00.699Z,4.32
2023-03-12T01:36:03.166Z,4.65
2023-03-12T01:37:07.351Z,4.55
2023-03-12T01:39:15.547Z,4.72
2023-03-12T01:40:20.382Z,4.10
2023-03-12T01:41:24.043Z,5.40
2023-03-12T01:42:26.418Z,3.70
2023-03-12T01:43:35.685Z,5.22
2023-03-12T01:44:57.129Z,7.10
2023-03-12T01:46:06.878Z,3.65
2023-03-12T01:47:11.827Z,4.90
2023-03-12T01:48:14.494Z,3.50
2023-03-12T01:49:25.336Z,6.30
2023-03-12T01:50:28.957Z,4.35
2023-03-12T01:51:36.893Z,3.95
2023-03-12T01:52:39.842Z,3.42
2023-03-12T01:53:47.551Z,6.10
2023-03-12T01:54:49.988Z,5.75
2023-03-12T01:55:52.596Z,3.30
2023-03-12T01:56:56.791Z,4.43
2023-03-12T01:57:59.241Z,4.82
2023-03-12T01:59:08.603Z,4.15
2023-03-12T02:00:20.256Z,4.03
2023-03-12T02:01:23.770Z,4.85
2023-03-12T02:02:28.933Z,4.82
2023-03-12T02:03:35.982Z,5.72
2023-03-12T02:04:40.100Z,4.18
2023-03-12T02:05:56.294Z,3.13
2023-03-12T02:07:09.310Z,4.45
2023-03-12T02:08:13.354Z,2.83
2023-03-12T02:09:20.422Z,4.75
2023-03-12T02:10:25.646Z,4.53
2023-03-12T02:11:28.373Z,3.83
2023-03-12T02:12:30.894Z,3.28
2023-03-12T02:13:34.277Z,4.68
2023-03-12T02:14:37.322Z,4.30
2023-03-12T02:15:40.210Z,3.08
2023-03-12T02:16:44.210Z,4.20
2023-03-12T02:17:47.656Z,3.38
2023-03-12T02:18:51.911Z,5.88
2023-03-12T02:20:22.608Z,3.60
2023-03-12T02:21:28.221Z,2.78
2023-03-12T02:22:32.003Z,4.63
2023-03-12T02:23:53.510Z,6.65
2023-03-12T02:25:14.501Z,5.45
2023-03-12T02:26:17.980Z,3.33
2023-03-12T02:27:22.304Z,5.20
2023-03-12T02:28:29.376Z,3.88
2023-03-12T02:29:34.508Z,4.38
2023-03-12T02:30:47.463Z,3.58
2023-03-12T02:31:54.585Z,4.18
2023-03-12T02:33:00.144Z,6.43
2023-03-12T02:34:03.540Z,4.38
2023-03-12T02:35:08.996Z,2.85
2023-03-12T02:36:12.391Z,3.92
2023-03-12T02:37:14.885Z,3.42
2023-03-12T02:38:39.108Z,4.18
2023-03-12T02:39:42.693Z,4.78
2023-03-12T02:40:47.978Z,4.20
2023-03-12T02:41:55.845Z,3.70
2023-03-12T02:42:58.628Z,4.35
2023-03-12T02:44:16.178Z,4.45
2023-03-12T02:45:19.041Z,3.85
2023-03-12T02:46:22.195Z,4.03
2023-03-12T02:47:25.228Z,2.92
2023-03-12T02:48:28.389Z,3.20
2023-03-12T02:49:33.447Z,3.88
2023-03-12T02:50:36.045Z,5.75
2023-03-12T02:51:40.833Z,4.30
2023-03-12T02:52:43.320Z,6.07
2023-03-12T02:53:46.727Z,4.70
2023-03-12T02:54:49.342Z,3.90
2023-03-12T02:55:53.068Z,5.50
2023-03-12T02:56:56.827Z,3.42
2023-03-12T02:58:00.723Z,4.28
2023-03-12T03:00:13.180Z,4.43
2023-03-12T03:01:18.664Z,4.07
2023-03-12T03:02:21.062Z,5.05
2023-03-12T03:03:23.473Z,3.90
2023-03-12T03:04:26.782Z,3.85
2023-03-12T03:05:29.275Z,4.47
2023-03-12T03:06:32.700Z,4.40
2023-03-12T03:07:35.353Z,5.22
2023-03-12T03:08:38.031Z,5.68
2023-03-12T03:09:40.895Z,5.93
2023-03-12T03:10:43.885Z,5.40
2023-03-12T03:11:46.325Z,6.18
2023-03-12T03:12:48.976Z,6.90
2023-03-12T03:13:55.922Z,5.80
2023-03-12T03:14:59.559Z,5.20
2023-03-12T03:16:02.263Z,4.70
2023-03-12T03:17:05.316Z,6.40
2023-03-12T03:18:07.814Z,3.85
2023-03-12T03:19:11.517Z,4.70
2023-03-12T03:20:14.285Z,5.15
2023-03-12T03:21:17.422Z,9.25
2023-03-12T03:22:22.172Z,5.90
2023-03-12T03:23:24.843Z,4.43
2023-03-12T03:24:27.222Z,6.40
2023-03-12T03:25:29.650Z,6.13
2023-03-12T03:26:32.002Z,4.68
2023-03-12T03:27:34.673Z,7.20
2023-03-12T03:28:37.566Z,5.07
2023-03-12T03:29:40.310Z,6.38
2023-03-12T03:30:43.893Z,5.53
2023-03-12T03:31:46.304Z,5.07
2023-03-12T03:32:50.246Z,7.57
2023-03-12T03:33:55.711Z,9.40
2023-03-12T03:34:58.023Z,10.38
2023-03-12T03:36:01.831Z,9.18
2023-03-12T03:37:06.761Z,9.75
2023-03-12T03:38:10.232Z,9.77
2023-03-12T03:39:12.616Z,8.52
2023-03-12T03:40:15.309Z,11.05
2023-03-12T03:41:19.002Z,10.57
2023-03-12T03:42:21.754Z,9.25
2023-03-12T03:43:24.905Z,7.72
2023-03-12T03:44:27.298Z,11.50
2023-03-12T03:45:30.033Z,10.80
2023-03-12T03:46:32.520Z,9.48
2023-03-12T03:47:38.572Z,6.93
2023-03-12T03:48:42.178Z,9.93
2023-03-12T03:49:52.951Z,6.25
2023-03-12T03:50:55.452Z,5.88
2023-03-12T03:51:57.873Z,7.20
2023-03-12T03:53:08.323Z,8.55
2023-03-12T03:54:11.543Z,7.07
2023-03-12T03:55:15.324Z,7.20
2023-03-12T03:56:18.352Z,6.53
2023-03-12T03:57:24.041Z,4.57
2023-03-12T03:58:26.490Z,8.35
2023-03-12T03:59:28.939Z,4.80
2023-03-12T04:00:31.518Z,10.77
2023-03-12T04:01:34.336Z,4.90
2023-03-12T04:02:37.413Z,5.68
2023-03-12T04:03:40.467Z,4.90
2023-03-12T04:04:43.459Z,6.38
2023-03-12T04:05:46.142Z,5.75
2023-03-12T04:06:48.597Z,6.00
2023-03-12T04:07:53.855Z,5.90
2023-03-12T04:08:59.665Z,4.32
2023-03-12T04:10:05.494Z,5.15
2023-03-12T04:11:20.027Z,4.72
2023-03-12T04:12:25.860Z,7.38
2023-03-12T04:13:29.122Z,7.60
2023-03-12T04:14:31.813Z,7.40
2023-03-12T04:15:35.172Z,6.85
2023-03-12T04:16:37.537Z,8.65
2023-03-12T04:17:40.444Z,8.82
2023-03-12T04:18:44.629Z,34.80
2023-03-12T04:19:47.990Z,33.53
2023-03-12T04:20:50.748Z,40.00
2023-03-12T04:21:53.208Z,31.48
2023-03-12T04:22:55.694Z,25.08
2023-03-12T04:25:07.759Z,18.38
2023-03-12T04:27:12.832Z,9.10
2023-03-12T04:28:18.270Z,9.82
2023-03-12T04:29:20.877Z,9.70
2023-03-12T04:30:23.367Z,8.65
2023-03-12T04:31:26.231Z,10.73
2023-03-12T04:32:28.930Z,8.38
2023-03-12T04:33:34.353Z,9.25
2023-03-12T04:34:37.314Z,9.52
2023-03-12T04:35:39.639Z,8.27
2023-03-12T04:36:42.240Z,10.43
2023-03-12T04:37:45.343Z,11.30
2023-03-12T04:38:47.887Z,13.50
2023-03-12T04:39:52.123Z,23.23
2023-03-12T04:41:09.380Z,29.75
2023-03-12T04:42:14.599Z,32.75
2023-03-12T04:43:21.134Z,30.00
2023-03-12T04:44:23.997Z,27.45
2023-03-12T04:45:26.593Z,28.90
2023-03-12T04:46:30.139Z,29.42
2023-03-12T04:47:34.256Z,29.13
2023-03-12T04:48:37.193Z,31.92
2023-03-12T04:49:40.276Z,31.30
2023-03-12T04:50:43.790Z,25.73
2023-03-12T04:51:46.666Z,36.08
2023-03-12T04:52:48.982Z,31.80
2023-03-12T04:53:52.339Z,29.67
2023-03-12T04:54:55.412Z,29.63
2023-03-12T04:55:58.132Z,29.80
2023-03-12T04:57:00.851Z,32.17
2023-03-12T04:58:03.437Z,24.00
2023-03-12T04:59:08.371Z,27.23
2023-03-12T05:00:13.511Z,22.08
2023-03-12T05:01:23.417Z,36.28
2023-03-12T05:02:26.707Z,23.88
2023-03-12T05:03:29.445Z,20.73
2023-03-12T05:04:33.806Z,22.35
2023-03-12T05:05:36.578Z,18.55
2023-03-12T05:06:39.408Z,20.48
2023-03-12T05:07:41.954Z,16.92
2023-03-12T05:08:44.604Z,13.13
2023-03-12T05:09:47.247Z,15.88
2023-03-12T05:10:50.912Z,15.13
2023-03-12T05:11:53.595Z,14.30
2023-03-12T05:12:57.519Z,13.32
2023-03-12T05:14:00.862Z,15.20
2023-03-12T05:15:04.241Z,18.17
2023-03-12T05:16:07.724Z,24.50
2023-03-12T05:17:10.650Z,25.80
2023-03-12T05:18:13.992Z,21.02
2023-03-12T05:19:16.668Z,20.55
2023-03-12T05:20:19.306Z,22.02
2023-03-12T05:21:23.379Z,18.67
2023-03-12T05:22:29.498Z,16.80
2023-03-12T05:23:34.193Z,16.83
2023-03-12T05:24:36.815Z,17.33
2023-03-12T05:25:40.953Z,17.95
2023-03-12T05:26:43.857Z,19.17
2023-03-12T05:27:58.386Z,26.25
2023-03-12T05:29:02.121Z,20.52
2023-03-12T05:30:06.105Z,27.13
2023-03-12T05:31:11.347Z,32.05
2023-03-12T05:32:14.203Z,30.92
2023-03-12T05:33:16.593Z,38.97
2023-03-12T05:34:19.029Z,38.55
2023-03-12T05:35:22.092Z,44.38
2023-03-12T05:36:24.681Z,42.30
2023-03-12T05:37:27.388Z,46.65
2023-03-12T05:38:30.766Z,48.10
2023-03-12T05:39:33.461Z,47.17
2023-03-12T05:40:39.927Z,33.63
2023-03-12T05:41:42.572Z,39.70
2023-03-12T05:42:53.739Z,27.10
2023-03-12T05:43:57.962Z,25.52
2023-03-12T05:45:00.900Z,26.52
2023-03-12T05:46:05.412Z,21.33
2023-03-12T05:47:10.946Z,20.48
2023-03-12T05:48:16.108Z,21.27
2023-03-12T05:49:19.809Z,20.10
2023-03-12T05:50:22.201Z,22.45
2023-03-12T05:51:24.773Z,19.15
2023-03-12T05:52:27.572Z,17.73
2023-03-12T05:53:30.011Z,20.92
2023-03-12T05:54:32.407Z,21.40
2023-03-12T05:55:36.848Z,21.92
2023-03-12T05:56:39.439Z,17.95
2023-03-12T05:57:42.728Z,16.83
2023-03-12T05:58:48.068Z,12.73
2023-03-12T05:59:50.780Z,11.73
2023-03-12T06:00:53.132Z,11.60
2023-03-12T06:01:58.855Z,11.70
2023-03-12T06:03:02.679Z,10.32
2023-03-12T06:04:05.472Z,14.27
2023-03-12T06:05:09.630Z,8.13
2023-03-12T06:06:12.515Z,10.23
2023-03-12T06:07:16.239Z,10.52
2023-03-12T06:08:18.872Z,15.95
2023-03-12T06:09:21.499Z,9.65
2023-03-12T06:10:23.976Z,13.27
2023-03-12T06:11:27.190Z,15.48
2023-03-12T06:12:30.062Z,12.27
2023-03-12T06:13:32.650Z,13.73
2023-03-12T06:14:35.146Z,17.00
2023-03-12T06:15:37.653Z,12.80
2023-03-12T06:16:41.657Z,11.80
2023-03-12T06:17:44.091Z,10.45
2023-03-12T06:18:47.915Z,14.10
2023-03-12T06:19:53.066Z,8.52
2023-03-12T06:20:56.311Z,14.27
2023-03-12T06:21:58.710Z,14.93
2023-03-12T06:23:03.040Z,8.95
2023-03-12T06:24:07.403Z,8.93
2023-03-12T06:25:30.074Z,7.32
2023-03-12T06:26:32.569Z,9.82
2023-03-12T06:27:34.963Z,8.93
2023-03-12T06:28:39.532Z,6.97
2023-03-12T06:29:42.088Z,12.98
2023-03-12T06:30:45.334Z,7.88
2023-03-12T06:31:48.687Z,9.27
2023-03-12T06:32:51.006Z,8.75
2023-03-12T06:33:53.989Z,8.90
2023-03-12T06:34:56.604Z,8.95
2023-03-12T06:36:01.418Z,6.88
2023-03-12T06:37:03.944Z,6.03
2023-03-12T06:38:06.430Z,7.38
2023-03-12T06:39:09.906Z,6.03
2023-03-12T06:40:13.245Z,7.38
2023-03-12T06:41:17.893Z,8.38
2023-03-12T06:42:20.978Z,7.07
2023-03-12T06:43:24.368Z,6.28
2023-03-12T06:44:27.099Z,8.25
2023-03-12T06:45:29.685Z,6.50
2023-03-12T06:46:32.791Z,9.38
2023-03-12T06:47:36.152Z,6.75
2023-03-12T06:48:41.537Z,6.20
2023-03-12T06:49:44.279Z,9.35
2023-03-12T06:50:46.681Z,10.13
2023-03-12T06:51:49.273Z,10.35
2023-03-12T06:52:54.123Z,7.63
2023-03-12T06:53:56.443Z,8.05
2023-03-12T06:54:58.808Z,9.15
2023-03-12T06:56:01.406Z,6.65
2023-03-12T06:57:04.119Z,8.63
2023-03-12T06:58:06.741Z,8.40
2023-03-12T06:59:11.722Z,6.13
2023-03-12T07:00:14.431Z,6.50
2023-03-12T07:01:18.475Z,7.38
2023-03-12T07:02:21.252Z,8.55
2023-03-12T07:03:24.392Z,7.68
2023-03-12T07:04:26.980Z,9.30
2023-03-12T07:05:30.218Z,5.50
2023-03-12T07:06:32.858Z,7.25
2023-03-12T07:07:35.312Z,7.30
2023-03-12T07:08:38.263Z,9.43
2023-03-12T07:09:40.788Z,4.38
2023-03-12T07:10:43.747Z,7.70
2023-03-12T07:11:46.896Z,4.80
2023-03-12T07:12:49.755Z,9.77
2023-03-12T07:13:52.235Z,6.78
2023-03-12T07:14:54.872Z,7.65
2023-03-12T07:15:57.345Z,9.05
2023-03-12T07:17:04.334Z,7.53
2023-03-12T07:18:10.892Z,7.50
2023-03-12T07:19:14.046Z,6.13
2023-03-12T07:20:17.389Z,4.75
2023-03-12T07:21:25.467Z,6.53
2023-03-12T07:22:28.299Z,6.13
2023-03-12T07:23:30.806Z,7.35
2023-03-12T07:24:33.299Z,11.48
2023-03-12T07:25:37.707Z,7.15
2023-03-12T07:26:40.348Z,8.15
2023-03-12T07:27:42.792Z,5.13
2023-03-12T07:28:45.800Z,4.15
2023-03-12T07:29:48.796Z,4.95
2023-03-12T07:30:51.303Z,5.07
2023-03-12T07:31:53.696Z,6.85
2023-03-12T07:32:56.247Z,6.03
2023-03-12T07:33:58.871Z,5.28
2023-03-12T07:35:01.451Z,7.78
2023-03-12T07:36:04.531Z,9.20
2023-03-12T07:37:07.268Z,6.82
2023-03-12T07:38:11.958Z,7.13
2023-03-12T07:39:17.072Z,7.03
2023-03-12T07:40:19.663Z,6.60
2023-03-12T07:41:22.095Z,5.95
2023-03-12T07:42:24.795Z,7.03
2023-03-12T07:43:27.392Z,6.90
2023-03-12T07:44:30.797Z,7.63
2023-03-12T07:45:33.387Z,8.82
2023-03-12T07:46:36.030Z,6.57
2023-03-12T07:47:38.989Z,5.43
2023-03-12T07:48:45.647Z,21.40
2023-03-12T07:49:48.474Z,7.53
2023-03-12T07:50:51.020Z,6.70
2023-03-12T07:51:53.446Z,6.15
2023-03-12T07:52:56.238Z,7.30
2023-03-12T07:53:58.661Z,8.30
2023-03-12T07:55:01.361Z,6.32
2023-03-12T07:56:03.924Z,5.30
2023-03-12T07:57:07.031Z,5.10
2023-03-12T07:58:09.762Z,4.53
2023-03-12T07:59:12.416Z,4.50
2023-03-12T08:00:15.593Z,5.78
2023-03-12T08:01:18.003Z,6.20
2023-03-12T08:02:21.288Z,7.70
2023-03-12T08:03:41.747Z,5.40
2023-03-12T08:04:44.345Z,8.15
2023-03-12T08:05:56.757Z,4.97
2023-03-12T08:06:59.788Z,6.70
2023-03-12T08:08:02.529Z,7.13
2023-03-12T08:09:05.024Z,6.80
2023-03-12T08:10:09.294Z,5.35
2023-03-12T08:11:11.835Z,6.22
2023-03-12T08:12:14.352Z,6.20
2023-03-12T08:13:16.869Z,4.85
2023-03-12T08:14:19.260Z,6.40
2023-03-12T08:15:21.603Z,5.75
2023-03-12T08:16:24.161Z,5.05
2023-03-12T08:17:26.910Z,4.00
2023-03-12T08:18:29.530Z,6.30
2023-03-12T08:19:32.113Z,5.65
2023-03-12T08:20:34.579Z,4.30
2023-03-12T08:21:37.357Z,5.22
2023-03-12T08:22:40.400Z,4.78
2023-03-12T08:23:43.201Z,4.05
2023-03-12T08:24:45.675Z,4.80
2023-03-12T08:25:49.870Z,6.18
2023-03-12T08:26:52.622Z,4.78
2023-03-12T08:27:54.922Z,8.25
2023-03-12T08:28:57.558Z,5.30
2023-03-12T08:30:00.265Z,8.00
2023-03-12T08:31:02.797Z,6.15
2023-03-12T08:32:05.849Z,6.78
2023-03-12T08:33:08.355Z,5.30
2023-03-12T08:34:10.788Z,4.00
2023-03-12T08:35:13.170Z,6.30
2023-03-12T08:36:15.552Z,3.38
2023-03-12T08:37:19.268Z,12.93
2023-03-12T08:38:22.209Z,12.05
2023-03-12T08:39:24.615Z,7.10
2023-03-12T08:40:27.011Z,5.45
2023-03-12T08:41:30.412Z,15.38
2023-03-12T08:42:32.763Z,12.73
2023-03-12T08:43:35.263Z,31.27
2023-03-12T08:44:37.598Z,70.78
2023-03-12T08:45:40.056Z,74.35
2023-03-12T08:46:42.398Z,11.50
2023-03-12T08:47:46.786Z,17.25
2023-03-12T08:48:49.461Z,5.07
2023-03-12T08:49:51.975Z,17.23
2023-03-12T08:50:59.028Z,8.52
2023-03-12T08:52:02.746Z,4.10
2023-03-12T08:53:05.361Z,5.00
2023-03-12T08:54:07.718Z,5.97
2023-03-12T08:55:13.853Z,5.60
2023-03-12T08:56:16.392Z,5.63
2023-03-12T08:57:19.579Z,5.60
2023-03-12T08:58:27.690Z,5.15
2023-03-12T08:59:30.067Z,6.40
2023-03-12T09:00:32.667Z,5.57
2023-03-12T09:01:35.315Z,9.00
2023-03-12T09:02:39.009Z,7.03
2023-03-12T09:03:41.689Z,6.28
2023-03-12T09:04:49.695Z,5.15
2023-03-12T09:06:02.885Z,4.00
2023-03-12T09:07:05.910Z,4.63
2023-03-12T09:08:09.198Z,7.88
2023-03-12T09:09:12.046Z,6.55
2023-03-12T09:10:14.429Z,9.05
2023-03-12T09:11:16.853Z,10.32
2023-03-12T09:12:19.298Z,17.77
2023-03-12T09:13:21.899Z,10.88
2023-03-12T09:15:46.801Z,11.10
2023-03-12T09:16:50.362Z,10.63
2023-03-12T09:17:54.158Z,8.30
2023-03-12T09:18:56.719Z,13.27
2023-03-12T09:19:59.224Z,13.55
2023-03-12T09:21:01.809Z,9.27
2023-03-12T09:22:04.446Z,11.73
2023-03-12T09:23:07.850Z,13.32
2023-03-12T09:24:11.565Z,12.43
2023-03-12T09:25:14.421Z,6.47
2023-03-12T09:26:17.202Z,6.68
2023-03-12T09:27:19.679Z,7.93
2023-03-12T09:28:25.026Z,11.35
2023-03-12T09:29:28.274Z,3.75
2023-03-12T09:30:34.339Z,5.78
2023-03-12T09:31:37.297Z,5.10
2023-03-12T09:32:39.653Z,6.30
2023-03-12T09:33:42.130Z,5.10
2023-03-12T09:34:44.561Z,5.28
2023-03-12T09:35:59.509Z,6.35
2023-03-12T09:37:02.384Z,8.13
2023-03-12T09:38:05.011Z,6.35
2023-03-12T09:39:07.526Z,5.10
2023-03-12T09:40:17.695Z,7.32
2023-03-12T09:41:23.444Z,4.15
2023-03-12T09:42:35.769Z,4.00
2023-03-12T09:43:47.905Z,4.85
2023-03-12T09:44:52.144Z,4.18
2023-03-12T09:45:56.316Z,3.80
2023-03-12T09:47:04.006Z,3.90
2023-03-12T09:48:13.580Z,3.47
2023-03-12T09:49:43.411Z,4.28
2023-03-12T09:50:49.283Z,4.45
2023-03-12T09:51:55.694Z,4.95
2023-03-12T09:53:13.126Z,3.67
2023-03-12T09:54:33.568Z,5.93
2023-03-12T09:55:40.125Z,3.65
2023-03-12T09:56:43.226Z,4.90
2023-03-12T09:57:47.224Z,4.72
2023-03-12T09:59:53.833Z,5.78
2023-03-12T10:01:07.343Z,5.07
2023-03-12T10:02:53.744Z,2.97
2023-03-12T10:04:21.063Z,4.18
2023-03-12T10:05:41.335Z,5.63
2023-03-12T10:07:19.653Z,4.85
2023-03-12T10:08:30.790Z,4.53
2023-03-12T10:09:45.988Z,3.40
2023-03-12T10:10:55.312Z,4.95
2023-03-12T10:12:06.751Z,4.82
2023-03-12T10:13:17.523Z,4.18
2023-03-12T10:14:55.388Z,3.67
2023-03-12T10:16:23.649Z,6.07
2023-03-12T10:17:50.829Z,4.05
2023-03-12T10:19:23.937Z,3.72
2023-03-12T10:20:48.280Z,4.28
2023-03-12T10:22:08.390Z,4.45
2023-03-12T10:23:19.700Z,9.23
2023-03-12T10:24:34.938Z,5.07
2023-03-12T10:25:59.264Z,6.10
2023-03-12T10:27:02.067Z,7.28
2023-03-12T10:28:30.534Z,3.75
2023-03-12T10:29:38.696Z,6.53
2023-03-12T10:30:46.737Z,7.35
2023-03-12T10:31:52.962Z,4.60
2023-03-12T10:33:01.839Z,3.25
2023-03-12T10:34:21.235Z,5.07
2023-03-12T10:35:25.838Z,4.22
2023-03-12T10:36:36.808Z,5.53
2023-03-12T10:37:58.074Z,9.85
2023-03-12T10:39:03.864Z,5.22
2023-03-12T10:40:07.091Z,4.93
2023-03-12T10:41:22.823Z,3.90
2023-03-12T10:42:27.919Z,4.40
2023-03-12T10:43:31.334Z,4.60
2023-03-12T10:44:34.086Z,5.00
2023-03-12T10:46:01.872Z,4.22
2023-03-12T10:47:37.578Z,3.70
2023-03-12T10:48:40.269Z,4.57
2023-03-12T10:49:43.091Z,6.10
2023-03-12T10:51:02.729Z,5.57
2023-03-12T10:52:09.753Z,6.97
2023-03-12T10:53:22.877Z,4.97
2023-03-12T10:54:35.965Z,5.28
2023-03-12T10:55:39.202Z,6.22
2023-03-12T10:56:51.113Z,6.72
2023-03-12T10:57:54.283Z,4.28
2023-03-12T10:59:00.078Z,4.75
2023-03-12T11:00:12.109Z,4.88
2023-03-12T11:01:31.746Z,6.97
2023-03-12T11:03:04.127Z,5.00
2023-03-12T11:04:33.087Z,5.82
2023-03-12T11:05:49.139Z,5.85
2023-03-12T11:07:14.619Z,4.32
2023-03-12T11:08:32.332Z,9.45
2023-03-12T11:09:34.790Z,4.10
2023-03-12T11:10:44.600Z,5.30
2023-03-12T11:11:49.207Z,6.35
2023-03-12T11:12:58.591Z,5.22
2023-03-12T11:14:17.699Z,5.18
2023-03-12T11:15:32.036Z,4.72
2023-03-12T11:16:34.616Z,5.13
2023-03-12T11:17:37.270Z,5.82
2023-03-12T11:18:40.610Z,4.65
2023-03-12T11:19:46.530Z,3.53
2023-03-12T11:20:52.710Z,4.05
2023-03-12T11:22:01.300Z,5.18
2023-03-12T11:23:18.151Z,6.68
2023-03-12T11:24:22.307Z,5.95
2023-03-12T11:25:28.060Z,7.38
2023-03-12T11:26:51.276Z,6.82
2023-03-12T11:27:58.270Z,6.72
2023-03-12T11:29:27.662Z,5.90
2023-03-12T11:30:39.289Z,4.97
2023-03-12T11:32:04.733Z,7.13
2023-03-12T11:33:10.090Z,7.13
2023-03-12T11:34:23.546Z,4.68
2023-03-12T11:35:58.667Z,4.72
2023-03-12T11:37:32.150Z,3.55
2023-03-12T11:38:53.308Z,4.28
2023-03-12T11:40:10.178Z,5.40
2023-03-12T11:41:24.132Z,4.88
2023-03-12T11:43:02.108Z,4.03
2023-03-12T11:44:12.273Z,6.75
2023-03-12T11:45:20.658Z,7.80
2023-03-12T11:46:26.012Z,4.45
2023-03-12T11:47:56.962Z,6.25
2023-03-12T11:49:25.490Z,4.05
2023-03-12T11:50:51.375Z,6.10
2023-03-12T11:52:10.586Z,5.68
2023-03-12T11:53:36.368Z,5.10
2023-03-12T11:55:19.690Z,5.75
2023-03-12T11:56:36.682Z,5.70
2023-03-12T11:59:21.649Z,3.60
2023-03-12T12:00:37.818Z,5.30
2023-03-12T12:02:01.663Z,4.50
2023-03-12T12:03:12.849Z,5.85
2023-03-12T12:04:37.193Z,5.28
2023-03-12T12:06:18.906Z,4.88
2023-03-12T12:07:39.660Z,4.70
2023-03-12T12:09:17.366Z,4.45
2023-03-12T12:10:44.602Z,6.28
2023-03-12T12:12:13.729Z,5.95
2023-03-12T12:13:43.956Z,7.82
2023-03-12T12:14:59.851Z,7.15
2023-03-12T12:16:22.526Z,9.80
2023-03-12T12:17:47.631Z,6.05
2023-03-12T12:18:57.772Z,7.47
2023-03-12T12:21:45.285Z,4.88
2023-03-12T12:23:02.368Z,4.95
2023-03-12T12:24:33.246Z,4.22
2023-03-12T12:26:03.345Z,4.50
2023-03-12T12:27:26.431Z,4.18
2023-03-12T12:28:40.188Z,3.95
2023-03-12T12:29:54.728Z,4.88
2023-03-12T12:31:18.520Z,5.85
2023-03-12T12:32:49.571Z,4.45
2023-03-12T12:34:09.937Z,4.95
2023-03-12T12:35:26.000Z,5.10
2023-03-12T12:36:34.851Z,8.52
2023-03-12T12:38:03.444Z,4.95
2023-03-12T12:39:32.280Z,5.32
2023-03-12T12:40:39.266Z,5.45
2023-03-12T12:41:51.614Z,5.40
2023-03-12T12:43:02.954Z,4.95
2023-03-12T12:44:13.092Z,3.85
2023-03-12T12:45:16.221Z,7.35
2023-03-12T12:46:25.681Z,4.22
2023-03-12T12:47:42.708Z,5.13
2023-03-12T12:48:51.558Z,5.20
2023-03-12T12:49:59.671Z,18.00
2023-03-12T12:51:04.583Z,16.45
2023-03-12T12:52:11.884Z,15.20
2023-03-12T12:53:20.736Z,18.35
2023-03-12T12:55:01.262Z,12.90
2023-03-12T12:56:38.784Z,9.35
2023-03-12T12:58:00.795Z,6.47
2023-03-12T12:59:42.223Z,3.83
2023-03-12T13:00:55.876Z,6.40
2023-03-12T13:02:00.442Z,5.90
2023-03-12T13:03:03.321Z,4.00
2023-03-12T13:04:12.574Z,5.90
2023-03-12T13:05:27.217Z,6.43
2023-03-12T13:07:17.601Z,3.42
2023-03-12T13:08:43.100Z,5.85
2023-03-12T13:09:57.875Z,4.68
2023-03-12T13:11:17.255Z,4.45
2023-03-12T13:12:48.010Z,3.58
2023-03-12T13:14:12.203Z,3.20
2023-03-12T13:15:31.141Z,3.50
2023-03-12T13:16:47.514Z,5.05
2023-03-12T13:17:52.910Z,8.65
2023-03-12T13:19:07.223Z,5.10
2023-03-12T13:20:11.178Z,4.75
2023-03-12T13:21:23.621Z,3.83
2023-03-12T13:22:38.421Z,3.47
2023-03-12T13:23:54.296Z,6.53
2023-03-12T13:24:59.543Z,5.68
2023-03-12T13:26:23.459Z,5.45
2023-03-12T13:27:46.171Z,6.10
2023-03-12T13:30:33.067Z,8.93
2023-03-12T13:31:37.355Z,6.13
2023-03-12T13:33:02.297Z,6.28
2023-03-12T13:34:19.900Z,5.75
2023-03-12T13:35:22.254Z,5.97
2023-03-12T13:36:28.748Z,7.45
2023-03-12T13:37:47.066Z,4.43
2023-03-12T13:38:57.215Z,5.03
2023-03-12T13:40:02.239Z,6.93
2023-03-12T13:41:07.272Z,5.25
2023-03-12T13:42:25.213Z,5.45
2023-03-12T13:43:48.358Z,4.57
2023-03-12T13:44:52.659Z,3.90
2023-03-12T13:46:09.284Z,4.38
2023-03-12T13:47:23.642Z,9.18
2023-03-12T13:48:36.131Z,3.92
2023-03-12T13:49:46.168Z,4.18
2023-03-12T13:50:55.665Z,4.70
2023-03-12T13:52:07.530Z,6.80
2023-03-12T13:53:20.238Z,4.57
2023-03-12T13:54:28.279Z,4.45
2023-03-12T13:55:36.679Z,4.03
2023-03-12T13:56:39.740Z,6.00
2023-03-12T13:57:55.470Z,5.85
2023-03-12T13:59:04.797Z,3.88
2023-03-12T14:00:19.799Z,4.65
2023-03-12T14:01:28.363Z,4.35
2023-03-12T14:02:36.470Z,4.55
2023-03-12T14:03:50.010Z,4.70
2023-03-12T14:05:01.625Z,4.38
2023-03-12T14:06:13.943Z,6.93
2023-03-12T14:07:40.563Z,5.75
2023-03-12T14:08:48.204Z,3.97
2023-03-12T14:10:15.858Z,4.38
2023-03-12T14:11:56.460Z,5.03
2023-03-12T14:13:24.625Z,5.63
2023-03-12T14:15:00.168Z,4.22
2023-03-12T14:16:29.315Z,4.22
2023-03-12T14:17:33.963Z,8.77
2023-03-12T14:18:38.463Z,6.65
2023-03-12T14:19:46.458Z,6.13
2023-03-12T14:20:58.500Z,5.82
2023-03-12T14:22:06.081Z,9.68
2023-03-12T14:23:15.697Z,6.93
2023-03-12T14:24:58.628Z,4.30
2023-03-12T14:26:07.415Z,4.97
2023-03-12T14:27:22.157Z,4.43
2023-03-12T14:28:26.514Z,5.72
2023-03-12T14:29:36.552Z,4.05
2023-03-12T14:30:50.354Z,5.10
2023-03-12T14:31:57.719Z,9.32
2023-03-12T14:33:03.463Z,4.97
2023-03-12T14:34:17.372Z,5.68
2023-03-12T14:35:24.545Z,3.95
2023-03-12T14:36:38.143Z,3.90
2023-03-12T14:37:53.317Z,5.13
2023-03-12T14:39:11.553Z,4.95
2023-03-12T14:40:29.482Z,4.63
2023-03-12T14:41:37.810Z,3.70
2023-03-12T14:42:40.983Z,7.15
2023-03-12T14:43:46.638Z,3.25
2023-03-12T14:44:59.263Z,5.18
2023-03-12T14:46:14.002Z,4.15
2023-03-12T14:47:18.279Z,4.05
2023-03-12T14:48:23.297Z,5.93
2023-03-12T14:49:27.030Z,5.20
2023-03-12T14:50:37.636Z,3.67
2023-03-12T14:51:41.841Z,7.45
2023-03-12T14:52:44.963Z,6.45
2023-03-12T14:53:47.714Z,5.03
2023-03-12T14:55:00.836Z,3.45
2023-03-12T14:56:30.694Z,4.70
2023-03-12T14:57:34.343Z,4.05
2023-03-12T14:58:52.652Z,4.13
2023-03-12T14:59:59.472Z,9.10
2023-03-12T15:01:06.031Z,7.22
2023-03-12T15:02:17.205Z,7.43
2023-03-12T15:03:20.198Z,5.65
2023-03-12T15:04:25.372Z,4.65